Time;durP1;ratioP1;P1;durP2;ratioP2;P2;SDS_P1;SDS_P2;PMS_P1;PMS_P2;Temp;Humidity;BMP_temperature;BMP_pressure;BME280_temperature;BME280_humidity;BME280_pressure;Samples;Min_cycle;Max_cycle;Signal;HPM_P1;HPM_P2
2023/11/21 00:00:25;;;;;;;3.40;1.70;;;9.10;99.90;;;;;;5050688;28;20227;-63
2023/11/21 00:02:54;;;;;;;5.90;2.20;;;9.10;99.90;;;;;;5052468;28;20543;-63
2023/11/21 00:05:23;;;;;;;5.53;3.10;;;9.10;99.90;;;;;;5052366;28;20449;-63
2023/11/21 00:07:51;;;;;;;3.30;2.80;;;9.10;99.90;;;;;;5052138;28;20453;-63
2023/11/21 00:10:18;;;;;;;4.37;3.03;;;9.10;99.90;;;;;;5052170;28;20504;-63
2023/11/21 00:12:48;;;;;;;1.93;1.73;;;9.10;99.90;;;;;;5075077;22;21029;-63
2023/11/21 00:15:15;;;;;;;2.83;2.60;;;9.10;99.90;;;;;;5051680;28;20449;-62
2023/11/21 00:17:42;;;;;;;2.43;2.33;;;9.10;99.90;;;;;;5051113;28;20467;-63
2023/11/21 00:20:12;;;;;;;3.00;2.40;;;9.10;99.90;;;;;;5052025;28;20445;-62
2023/11/21 00:22:40;;;;;;;2.00;1.80;;;9.20;99.90;;;;;;5051157;28;20798;-62
2023/11/21 00:25:08;;;;;;;1.70;1.60;;;9.20;99.90;;;;;;5052051;28;20449;-62
2023/11/21 00:27:35;;;;;;;3.13;2.07;;;9.10;99.90;;;;;;5051465;28;20206;-62
2023/11/21 00:30:05;;;;;;;2.40;2.30;;;9.20;99.90;;;;;;5051841;28;20536;-62
2023/11/21 00:32:32;;;;;;;3.80;3.03;;;9.20;99.90;;;;;;5051313;28;20467;-62
2023/11/21 00:34:59;;;;;;;3.78;2.70;;;9.20;99.90;;;;;;5051738;28;20480;-62
2023/11/21 00:37:27;;;;;;;2.30;2.10;;;9.20;99.90;;;;;;5051289;28;20210;-62
2023/11/21 00:39:54;;;;;;;3.93;3.03;;;9.20;99.90;;;;;;5051971;28;20470;-62
2023/11/21 00:42:22;;;;;;;3.23;2.40;;;9.20;99.90;;;;;;5051917;28;20492;-62
2023/11/21 00:44:49;;;;;;;2.20;2.10;;;9.20;99.90;;;;;;5050993;28;20460;-62
2023/11/21 00:47:16;;;;;;;3.78;3.47;;;9.20;99.90;;;;;;5051273;28;20455;-62
2023/11/21 00:49:43;;;;;;;2.70;2.50;;;9.20;99.90;;;;;;5051407;28;20209;-62
2023/11/21 00:52:10;;;;;;;2.73;2.53;;;9.20;99.90;;;;;;5051734;28;20238;-62
2023/11/21 00:54:38;;;;;;;2.75;2.50;;;9.20;99.90;;;;;;5051215;28;20481;-62
2023/11/21 00:57:05;;;;;;;3.53;2.63;;;9.20;99.90;;;;;;5051307;28;20207;-62
2023/11/21 00:59:32;;;;;;;3.20;2.77;;;9.30;99.90;;;;;;5051511;28;20217;-62
2023/11/21 01:02:00;;;;;;;4.93;3.20;;;9.20;99.90;;;;;;5051209;28;20445;-62
2023/11/21 01:04:26;;;;;;;6.80;3.00;;;9.20;99.90;;;;;;5050393;28;20556;-62
2023/11/21 01:06:52;;;;;;;4.10;2.70;;;9.20;99.90;;;;;;5051456;28;20646;-62
2023/11/21 01:09:19;;;;;;;6.63;4.10;;;9.20;99.90;;;;;;5051538;28;20212;-62
2023/11/21 01:11:47;;;;;;;4.70;3.23;;;9.20;99.90;;;;;;5051387;28;20531;-62
2023/11/21 01:14:14;;;;;;;2.97;2.78;;;9.20;99.90;;;;;;5050862;28;20499;-62
2023/11/21 01:16:41;;;;;;;4.75;3.05;;;9.20;99.90;;;;;;5050926;28;20214;-62
2023/11/21 01:19:09;;;;;;;4.00;2.30;;;9.20;99.90;;;;;;5051258;28;20297;-62
2023/11/21 01:21:36;;;;;;;3.53;2.60;;;9.20;99.90;;;;;;5051344;28;20539;-62
2023/11/21 01:24:03;;;;;;;2.83;2.63;;;9.20;99.90;;;;;;5051061;28;20475;-62
2023/11/21 01:26:29;;;;;;;4.93;2.73;;;9.20;99.90;;;;;;5050750;28;20452;-63
2023/11/21 01:28:58;;;;;;;2.10;1.90;;;9.20;99.90;;;;;;5051265;28;20894;-62
2023/11/21 01:31:28;;;;;;;2.57;2.37;;;9.20;99.90;;;;;;5050953;28;20455;-62
2023/11/21 01:33:56;;;;;;;2.30;2.10;;;9.20;99.90;;;;;;5051242;28;20578;-62
2023/11/21 01:36:22;;;;;;;3.03;2.60;;;9.20;99.90;;;;;;5050807;28;20453;-63
2023/11/21 01:38:49;;;;;;;4.00;2.35;;;9.20;99.90;;;;;;5051225;28;20445;-62
2023/11/21 01:41:16;;;;;;;2.03;1.93;;;9.20;99.90;;;;;;5051172;28;20218;-62
2023/11/21 01:43:43;;;;;;;2.67;2.40;;;9.10;99.90;;;;;;5052794;28;20556;-62
2023/11/21 01:46:11;;;;;;;2.60;2.40;;;9.10;99.90;;;;;;5054676;28;20821;-62
2023/11/21 01:48:38;;;;;;;2.63;2.03;;;9.10;99.90;;;;;;5055241;28;20532;-62
2023/11/21 01:51:05;;;;;;;3.33;2.40;;;9.10;99.90;;;;;;5055127;28;20436;-62
2023/11/21 01:53:32;;;;;;;3.35;2.00;;;9.10;99.90;;;;;;5054828;28;20226;-62
2023/11/21 01:55:59;;;;;;;1.80;1.70;;;9.10;99.90;;;;;;5054661;28;20206;-62
2023/11/21 01:58:26;;;;;;;2.70;2.33;;;9.10;99.90;;;;;;5054415;28;20532;-62
2023/11/21 02:00:54;;;;;;;2.87;2.17;;;9.10;99.90;;;;;;5055076;28;20228;-62
2023/11/21 02:03:23;;;;;;;14.25;3.10;;;9.10;99.90;;;;;;5054693;28;20530;-62
2023/11/21 02:05:49;;;;;;;4.23;2.27;;;9.10;99.90;;;;;;5054566;28;20210;-62
2023/11/21 02:08:16;;;;;;;2.65;2.45;;;9.00;99.90;;;;;;5054631;28;20518;-62
2023/11/21 02:10:43;;;;;;;2.55;2.15;;;9.10;99.90;;;;;;5054774;28;20293;-62
2023/11/21 02:13:10;;;;;;;5.63;2.15;;;9.00;99.90;;;;;;5054181;28;20814;-62
2023/11/21 02:15:38;;;;;;;2.40;2.20;;;9.00;99.90;;;;;;5054570;28;20222;-62
2023/11/21 02:18:06;;;;;;;2.58;2.00;;;9.00;99.90;;;;;;5054434;28;20209;-62
2023/11/21 02:20:34;;;;;;;2.47;1.85;;;8.90;99.90;;;;;;5054551;28;20676;-62
2023/11/21 02:23:03;;;;;;;1.98;1.88;;;8.90;99.90;;;;;;5054608;28;20309;-62
2023/11/21 02:25:31;;;;;;;2.47;2.30;;;8.90;99.90;;;;;;5054234;28;20653;-62
2023/11/21 02:27:59;;;;;;;4.00;2.33;;;8.90;99.90;;;;;;5054261;28;20498;-62
2023/11/21 02:30:27;;;;;;;2.95;2.28;;;8.90;99.90;;;;;;5054398;28;20916;-62
2023/11/21 02:32:54;;;;;;;7.20;2.23;;;8.90;99.90;;;;;;5054088;28;20230;-62
2023/11/21 02:35:21;;;;;;;5.47;2.53;;;8.80;99.90;;;;;;5054191;28;20859;-62
2023/11/21 02:37:48;;;;;;;5.15;2.72;;;8.80;99.90;;;;;;5054019;28;20594;-62
2023/11/21 02:40:17;;;;;;;2.63;2.10;;;8.80;99.90;;;;;;5053997;28;20650;-62
2023/11/21 02:42:45;;;;;;;2.40;1.90;;;8.80;99.90;;;;;;5053880;28;20476;-62
2023/11/21 02:45:12;;;;;;;5.57;2.08;;;8.70;99.90;;;;;;5054078;28;20540;-62
2023/11/21 02:47:39;;;;;;;2.78;2.50;;;8.70;99.90;;;;;;5053703;28;20207;-62
2023/11/21 02:50:08;;;;;;;2.38;2.17;;;8.70;99.90;;;;;;5053728;28;20241;-62
2023/11/21 02:52:35;;;;;;;4.57;2.28;;;8.70;99.90;;;;;;5053644;28;20226;-62
2023/11/21 02:55:02;;;;;;;3.60;3.33;;;8.70;99.90;;;;;;5053009;28;20318;-62
2023/11/21 02:57:30;;;;;;;4.40;2.38;;;8.60;99.90;;;;;;5053386;28;20305;-62
2023/11/21 02:59:57;;;;;;;5.13;2.72;;;8.60;99.90;;;;;;5053578;28;20302;-62
2023/11/21 03:02:24;;;;;;;3.43;2.60;;;8.60;99.90;;;;;;5053534;28;20211;-62
2023/11/21 03:04:50;;;;;;;2.17;2.00;;;8.60;99.90;;;;;;5053442;28;20455;-62
2023/11/21 03:07:19;;;;;;;3.70;2.05;;;8.50;99.90;;;;;;5053413;28;20441;-62
2023/11/21 03:09:45;;;;;;;3.23;2.50;;;8.50;99.90;;;;;;5053505;28;20693;-62
2023/11/21 03:12:13;;;;;;;4.80;2.70;;;8.50;99.90;;;;;;5052877;28;20444;-62
2023/11/21 03:14:41;;;;;;;2.15;1.95;;;8.50;99.90;;;;;;5053333;28;20231;-62
2023/11/21 03:17:08;;;;;;;2.72;2.47;;;8.50;99.90;;;;;;5053239;28;20302;-62
2023/11/21 03:19:34;;;;;;;2.35;2.15;;;8.40;99.90;;;;;;5053222;28;20302;-62
2023/11/21 03:22:01;;;;;;;2.33;2.13;;;8.40;99.90;;;;;;5053006;28;20585;-62
2023/11/21 03:24:28;;;;;;;3.20;2.83;;;8.40;99.90;;;;;;5053257;28;20218;-62
2023/11/21 03:26:55;;;;;;;4.90;2.60;;;8.40;99.90;;;;;;5052971;28;20455;-62
2023/11/21 03:29:22;;;;;;;3.25;2.75;;;8.40;99.90;;;;;;5053185;28;20237;-62
2023/11/21 03:31:50;;;;;;;3.30;2.70;;;8.30;99.90;;;;;;5053165;28;20218;-62
2023/11/21 03:34:25;;;;;;;3.20;2.90;;;8.30;99.90;;;;;;5052926;28;20230;-62
2023/11/21 03:36:52;;;;;;;3.60;2.10;;;8.40;99.90;;;;;;5052815;28;20305;-62
2023/11/21 03:39:20;;;;;;;3.93;2.43;;;8.30;99.90;;;;;;5052937;28;20535;-62
2023/11/21 03:41:47;;;;;;;2.90;2.45;;;8.30;99.90;;;;;;5052881;28;20540;-62
2023/11/21 03:44:14;;;;;;;2.43;2.23;;;8.30;99.90;;;;;;5052600;28;20313;-62
2023/11/21 03:46:41;;;;;;;3.17;2.90;;;8.30;99.90;;;;;;5052325;28;20531;-62
2023/11/21 03:49:09;;;;;;;3.83;2.50;;;8.20;99.90;;;;;;5052912;28;20695;-62
2023/11/21 03:51:36;;;;;;;4.95;3.03;;;8.20;99.90;;;;;;5052962;28;20214;-62
2023/11/21 03:54:03;;;;;;;2.60;2.28;;;8.30;99.90;;;;;;5052647;28;20222;-62
2023/11/21 03:56:30;;;;;;;5.60;2.70;;;8.20;99.90;;;;;;5052386;28;20586;-62
2023/11/21 03:58:57;;;;;;;2.90;2.70;;;8.20;99.90;;;;;;5052633;28;20206;-62
2023/11/21 04:01:25;;;;;;;3.85;2.70;;;8.20;99.90;;;;;;5052531;28;20701;-62
2023/11/21 04:03:52;;;;;;;5.85;3.47;;;8.20;99.90;;;;;;5052402;28;20234;-62
2023/11/21 04:06:20;;;;;;;2.63;2.30;;;8.20;99.90;;;;;;5051428;28;20212;-62
2023/11/21 04:08:47;;;;;;;7.22;3.38;;;8.20;99.90;;;;;;5052446;28;20691;-62
2023/11/21 04:11:15;;;;;;;3.00;2.80;;;8.20;99.90;;;;;;5052428;28;20211;-62
2023/11/21 04:13:43;;;;;;;3.57;3.03;;;8.20;99.90;;;;;;5052165;28;20236;-62
2023/11/21 04:16:10;;;;;;;4.50;2.75;;;8.20;99.90;;;;;;5050195;28;20491;-63
2023/11/21 04:18:37;;;;;;;5.97;3.72;;;8.30;99.90;;;;;;5052084;28;20213;-62
2023/11/21 04:21:05;;;;;;;3.67;2.92;;;8.30;99.90;;;;;;5052148;28;20301;-62
2023/11/21 04:23:33;;;;;;;4.55;2.28;;;8.30;99.90;;;;;;5051841;28;20222;-62
2023/11/21 04:26:01;;;;;;;2.85;2.55;;;8.30;99.90;;;;;;5051790;28;20194;-62
2023/11/21 04:28:28;;;;;;;2.40;2.20;;;8.30;99.90;;;;;;5052057;28;20583;-62
2023/11/21 04:30:55;;;;;;;5.15;2.95;;;8.30;99.90;;;;;;5052215;28;20563;-62
2023/11/21 04:33:22;;;;;;;3.42;2.90;;;8.30;99.90;;;;;;5051963;28;20317;-62
2023/11/21 04:35:49;;;;;;;2.53;2.33;;;8.30;99.90;;;;;;5051830;28;20296;-63
2023/11/21 04:38:16;;;;;;;4.55;2.50;;;8.30;99.90;;;;;;5051738;28;20210;-62
2023/11/21 04:40:45;;;;;;;2.63;2.42;;;8.30;99.90;;;;;;5051922;28;20217;-62
2023/11/21 04:43:12;;;;;;;3.35;2.45;;;8.30;99.90;;;;;;5051920;28;20275;-62
2023/11/21 04:45:40;;;;;;;7.10;5.30;;;8.40;99.90;;;;;;5051584;28;20285;-63
2023/11/21 04:48:08;;;;;;;4.68;2.58;;;8.30;99.90;;;;;;5051405;28;20230;-62
2023/11/21 04:50:34;;;;;;;7.25;3.20;;;8.40;99.90;;;;;;5051518;28;20245;-62
2023/11/21 04:53:01;;;;;;;3.10;2.90;;;8.30;99.90;;;;;;5051404;28;20654;-62
2023/11/21 04:55:28;;;;;;;3.72;2.65;;;8.30;99.90;;;;;;5051395;28;20222;-63
2023/11/21 04:57:57;;;;;;;3.55;2.92;;;8.30;99.90;;;;;;5051336;28;20210;-62
2023/11/21 05:00:23;;;;;;;2.90;2.60;;;8.40;99.90;;;;;;5051415;28;20695;-62
2023/11/21 05:02:50;;;;;;;2.95;2.40;;;8.30;99.90;;;;;;5051284;28;20252;-62
2023/11/21 05:05:17;;;;;;;4.38;2.20;;;8.40;99.90;;;;;;5050402;28;20256;-62
2023/11/21 05:07:44;;;;;;;3.35;3.08;;;8.30;99.90;;;;;;5050482;28;20214;-62
2023/11/21 05:10:12;;;;;;;2.85;2.65;;;8.40;99.90;;;;;;5051350;28;20209;-62
2023/11/21 05:12:39;;;;;;;2.70;2.50;;;8.30;99.90;;;;;;5051321;28;20803;-62
2023/11/21 05:15:10;;;;;;;3.20;3.00;;;8.30;99.90;;;;;;5051253;28;20230;-62
2023/11/21 05:17:38;;;;;;;2.40;2.28;;;8.30;99.90;;;;;;5050750;28;20245;-62
2023/11/21 05:20:08;;;;;;;3.10;2.72;;;8.30;99.90;;;;;;5051086;28;20676;-62
2023/11/21 05:22:35;;;;;;;3.92;3.30;;;8.30;99.90;;;;;;5050988;28;20233;-62
2023/11/21 05:25:03;;;;;;;2.90;2.67;;;8.30;99.90;;;;;;5051099;28;20241;-62
2023/11/21 05:27:30;;;;;;;3.33;3.08;;;8.30;99.90;;;;;;5050975;28;20206;-62
2023/11/21 05:29:57;;;;;;;3.25;3.05;;;8.30;99.90;;;;;;5050979;28;20216;-62
2023/11/21 05:32:25;;;;;;;7.20;3.10;;;8.30;99.90;;;;;;5051102;28;20221;-62
2023/11/21 05:34:53;;;;;;;3.30;3.10;;;8.40;99.90;;;;;;5051196;28;20226;-62
2023/11/21 05:37:20;;;;;;;4.10;3.70;;;8.30;99.90;;;;;;5050993;28;20296;-62
2023/11/21 05:39:46;;;;;;;3.20;2.92;;;8.30;99.90;;;;;;5050918;28;20202;-62
2023/11/21 05:42:13;;;;;;;3.67;3.47;;;8.30;99.90;;;;;;5051002;28;20216;-62
2023/11/21 05:44:43;;;;;;;4.28;3.83;;;8.30;99.90;;;;;;5050977;28;20214;-62
2023/11/21 05:47:09;;;;;;;3.60;3.30;;;8.30;99.90;;;;;;5050443;28;20296;-62
2023/11/21 05:49:38;;;;;;;3.97;3.70;;;8.40;99.90;;;;;;5051134;28;20210;-62
2023/11/21 05:52:06;;;;;;;6.35;4.40;;;8.40;99.90;;;;;;5051277;28;20221;-62
2023/11/21 05:54:33;;;;;;;5.90;3.60;;;8.40;99.90;;;;;;5050599;28;20716;-62
2023/11/21 05:57:00;;;;;;;3.50;3.30;;;8.40;99.90;;;;;;5050643;28;20232;-62
2023/11/21 05:59:27;;;;;;;5.78;3.90;;;8.40;99.90;;;;;;5050913;28;20305;-62
2023/11/21 06:01:54;;;;;;;4.28;3.88;;;8.40;99.90;;;;;;5050935;28;20228;-62
2023/11/21 06:04:23;;;;;;;7.53;3.80;;;8.40;99.90;;;;;;5050688;28;20627;-62
2023/11/21 06:06:52;;;;;;;4.90;3.40;;;8.40;99.90;;;;;;5050714;28;20632;-62
2023/11/21 06:09:19;;;;;;;4.83;3.30;;;8.40;99.90;;;;;;5050596;28;20585;-62
2023/11/21 06:11:46;;;;;;;4.45;4.05;;;8.40;99.90;;;;;;5050558;28;20449;-62
2023/11/21 06:14:13;;;;;;;4.47;3.70;;;8.40;99.90;;;;;;5050455;28;20241;-62
2023/11/21 06:16:40;;;;;;;4.20;3.53;;;8.40;99.90;;;;;;5050499;28;20325;-63
2023/11/21 06:19:07;;;;;;;3.15;2.95;;;8.40;99.90;;;;;;5050429;28;20691;-62
2023/11/21 06:21:35;;;;;;;5.57;4.25;;;8.50;99.90;;;;;;5050757;28;20211;-63
2023/11/21 06:24:03;;;;;;;5.35;3.92;;;8.40;99.90;;;;;;5050723;28;20598;-63
2023/11/21 06:26:31;;;;;;;3.63;3.35;;;8.40;99.90;;;;;;5050273;28;20199;-62
2023/11/21 06:28:58;;;;;;;4.60;3.80;;;8.40;99.90;;;;;;5051004;28;20209;-62
2023/11/21 06:31:25;;;;;;;4.15;3.30;;;8.40;99.90;;;;;;5054481;28;20260;-62
2023/11/21 06:33:52;;;;;;;4.53;4.13;;;8.40;99.90;;;;;;5054281;28;20241;-62
2023/11/21 06:36:19;;;;;;;4.13;3.83;;;8.40;99.90;;;;;;5053826;28;20233;-63
2023/11/21 06:38:45;;;;;;;5.68;4.88;;;8.40;99.90;;;;;;5054177;28;20212;-62
2023/11/21 06:41:15;;;;;;;4.25;3.85;;;8.40;99.90;;;;;;5053927;28;20206;-62
2023/11/21 06:43:44;;;;;;;6.72;4.60;;;8.40;99.90;;;;;;5053898;28;20228;-62
2023/11/21 06:46:14;;;;;;;7.65;4.55;;;8.40;99.90;;;;;;5053315;28;20225;-63
2023/11/21 06:48:41;;;;;;;4.55;3.90;;;8.40;99.90;;;;;;5053922;28;20241;-62
2023/11/21 06:51:08;;;;;;;4.78;4.40;;;8.40;99.90;;;;;;5053819;28;20298;-62
2023/11/21 06:53:35;;;;;;;6.22;4.28;;;8.40;99.90;;;;;;5053666;28;20230;-63
2023/11/21 06:56:01;;;;;;;5.45;5.05;;;8.50;99.90;;;;;;5053496;28;20312;-63
2023/11/21 06:58:30;;;;;;;6.45;4.38;;;8.50;99.90;;;;;;5053712;28;20210;-62
2023/11/21 07:00:58;;;;;;;8.27;4.95;;;8.50;99.90;;;;;;5053802;28;20652;-62
2023/11/21 07:03:26;;;;;;;5.35;4.85;;;8.50;99.90;;;;;;5053468;28;20740;-62
2023/11/21 07:05:52;;;;;;;7.55;4.68;;;8.50;99.90;;;;;;5053612;28;20581;-62
2023/11/21 07:08:19;;;;;;;7.40;5.75;;;8.50;99.90;;;;;;5053225;28;20216;-63
2023/11/21 07:10:47;;;;;;;8.68;5.68;;;8.60;99.90;;;;;;5053415;28;20240;-63
2023/11/21 07:13:14;;;;;;;5.85;5.30;;;8.60;99.90;;;;;;5053421;28;20276;-62
2023/11/21 07:15:43;;;;;;;4.15;3.80;;;8.60;99.90;;;;;;5053552;28;20233;-63
2023/11/21 07:18:10;;;;;;;6.10;5.28;;;8.60;99.90;;;;;;5053132;28;20215;-62
2023/11/21 07:20:37;;;;;;;6.32;5.05;;;8.60;99.90;;;;;;5053322;28;20293;-63
2023/11/21 07:23:05;;;;;;;5.35;4.63;;;8.60;99.90;;;;;;5052991;28;20226;-62
2023/11/21 07:25:33;;;;;;;8.68;5.00;;;8.60;99.90;;;;;;5053300;28;20230;-63
2023/11/21 07:28:00;;;;;;;5.47;4.75;;;8.70;99.90;;;;;;5053087;28;20260;-63
2023/11/21 07:30:27;;;;;;;8.23;4.85;;;8.70;99.90;;;;;;5053253;28;20206;-62
2023/11/21 07:32:55;;;;;;;8.55;6.32;;;8.70;99.90;;;;;;5053154;28;20276;-63
2023/11/21 07:35:22;;;;;;;9.20;6.00;;;8.70;99.90;;;;;;5052721;28;20681;-63
2023/11/21 07:37:49;;;;;;;8.02;5.57;;;8.80;99.90;;;;;;5052795;28;20301;-63
2023/11/21 07:40:16;;;;;;;9.05;6.82;;;8.80;99.90;;;;;;5052762;28;20783;-62
2023/11/21 07:42:43;;;;;;;9.63;8.75;;;8.80;99.90;;;;;;5052874;28;20318;-63
2023/11/21 07:45:11;;;;;;;9.15;8.35;;;8.80;99.90;;;;;;5052943;28;20308;-63
2023/11/21 07:47:38;;;;;;;7.38;6.57;;;8.90;99.90;;;;;;5052532;28;20297;-63
2023/11/21 07:50:08;;;;;;;8.32;6.97;;;8.90;99.90;;;;;;5052735;28;20301;-62
2023/11/21 07:52:35;;;;;;;12.87;9.23;;;8.90;99.90;;;;;;5052872;28;20295;-63
2023/11/21 07:55:02;;;;;;;10.07;9.03;;;8.90;99.90;;;;;;5052583;28;21027;-63
2023/11/21 07:57:29;;;;;;;11.77;9.05;;;8.90;99.90;;;;;;5051394;28;20535;-63
2023/11/21 07:59:56;;;;;;;9.90;8.07;;;8.90;99.90;;;;;;5060546;28;20659;-62
2023/11/21 08:02:23;;;;;;;12.02;9.60;;;9.00;99.90;;;;;;5066725;28;20209;-62
2023/11/21 08:04:50;;;;;;;8.35;7.55;;;9.00;99.90;;;;;;5052035;28;20202;-62
2023/11/21 08:07:18;;;;;;;6.90;6.20;;;9.00;99.90;;;;;;5051927;28;20205;-63
2023/11/21 08:09:46;;;;;;;7.03;6.05;;;9.00;99.90;;;;;;5052371;28;20242;-63
2023/11/21 08:12:14;;;;;;;7.68;5.47;;;9.10;99.90;;;;;;5052171;28;20260;-63
2023/11/21 08:14:41;;;;;;;11.50;6.28;;;9.10;99.90;;;;;;5051947;28;20213;-63
2023/11/21 08:17:10;;;;;;;10.68;9.05;;;9.10;99.90;;;;;;5094597;22;20233;-63
2023/11/21 08:19:37;;;;;;;11.27;7.30;;;9.10;99.90;;;;;;5091842;28;20291;-63
2023/11/21 08:22:05;;;;;;;9.00;6.97;;;9.20;99.90;;;;;;5091080;28;20450;-63
2023/11/21 08:24:33;;;;;;;6.97;6.28;;;9.20;99.90;;;;;;5092017;28;20508;-62
2023/11/21 08:27:00;;;;;;;8.73;7.77;;;9.20;99.90;;;;;;5071490;28;20225;-63
2023/11/21 08:29:27;;;;;;;11.15;8.10;;;9.20;99.90;;;;;;5078642;28;20545;-63
2023/11/21 08:31:54;;;;;;;13.13;6.57;;;9.20;99.90;;;;;;5091288;28;20205;-63
2023/11/21 08:34:21;;;;;;;10.32;6.60;;;9.30;99.90;;;;;;5091386;28;20215;-62
2023/11/21 08:36:47;;;;;;;8.70;6.93;;;9.30;99.90;;;;;;5090844;28;20221;-63
2023/11/21 08:39:16;;;;;;;9.20;7.40;;;9.30;99.90;;;;;;5091880;28;20476;-63
2023/11/21 08:41:44;;;;;;;11.77;7.57;;;9.30;99.90;;;;;;5090653;28;20454;-63
2023/11/21 08:44:11;;;;;;;13.10;8.05;;;9.40;99.90;;;;;;5091261;28;20447;-63
2023/11/21 08:46:39;;;;;;;15.50;8.77;;;9.40;99.90;;;;;;5089335;28;20842;-63
2023/11/21 08:49:06;;;;;;;10.20;7.90;;;9.40;99.90;;;;;;5090098;28;20444;-63
2023/11/21 08:51:33;;;;;;;8.90;7.63;;;9.40;99.90;;;;;;5089240;28;20539;-63
2023/11/21 08:54:04;;;;;;;9.60;6.73;;;9.50;99.90;;;;;;5091119;28;20820;-63
2023/11/21 08:56:31;;;;;;;13.33;8.10;;;9.50;99.90;;;;;;5087487;28;20493;-62
2023/11/21 08:59:00;;;;;;;10.37;8.50;;;9.50;99.90;;;;;;5089994;28;21104;-63
2023/11/21 09:01:27;;;;;;;10.37;8.90;;;9.60;99.90;;;;;;5088714;28;20454;-62
2023/11/21 09:03:54;;;;;;;9.80;7.83;;;9.60;99.90;;;;;;5089809;28;20458;-62
2023/11/21 09:06:21;;;;;;;11.03;7.20;;;9.60;99.90;;;;;;5089511;28;20478;-62
2023/11/21 09:08:47;;;;;;;12.20;7.57;;;9.70;99.90;;;;;;5090579;28;21043;-62
2023/11/21 09:11:14;;;;;;;15.10;9.47;;;9.80;99.90;;;;;;5089943;28;20454;-61
2023/11/21 09:13:41;;;;;;;9.93;7.57;;;9.80;99.90;;;;;;5089158;28;20965;-62
2023/11/21 09:16:10;;;;;;;16.97;15.27;;;9.80;99.90;;;;;;5088377;28;20486;-63
2023/11/21 09:18:37;;;;;;;12.27;10.03;;;9.90;99.90;;;;;;5090069;28;20443;-63
2023/11/21 09:21:05;;;;;;;11.57;9.20;;;10.00;99.90;;;;;;5089699;28;20447;-62
2023/11/21 09:23:31;;;;;;;14.90;9.97;;;10.00;99.90;;;;;;5090085;28;20447;-63
2023/11/21 09:26:00;;;;;;;12.97;9.00;;;10.10;99.90;;;;;;5088659;28;20453;-62
2023/11/21 09:28:28;;;;;;;16.03;10.20;;;10.10;99.90;;;;;;5088914;28;20455;-63
2023/11/21 09:30:55;;;;;;;12.20;9.47;;;10.20;99.90;;;;;;5088731;28;20446;-63
2023/11/21 09:33:24;;;;;;;10.50;8.47;;;10.20;99.90;;;;;;5088420;28;20457;-63
2023/11/21 09:35:52;;;;;;;11.17;8.80;;;10.20;99.90;;;;;;5089581;28;20815;-63
2023/11/21 09:38:19;;;;;;;9.10;8.20;;;10.30;99.90;;;;;;5089164;28;20459;-63
2023/11/21 09:40:46;;;;;;;8.73;7.83;;;10.30;99.90;;;;;;5089722;28;20519;-62
2023/11/21 09:43:17;;;;;;;8.93;7.13;;;10.40;99.90;;;;;;5089174;28;21020;-63
2023/11/21 09:45:47;;;;;;;11.00;7.43;;;10.50;99.90;;;;;;5081834;28;20845;-63
2023/11/21 09:48:14;;;;;;;8.00;7.20;;;10.50;99.90;;;;;;5089040;28;20471;-63
2023/11/21 09:50:44;;;;;;;6.37;5.30;;;10.60;99.90;;;;;;5089874;28;20997;-62
2023/11/21 09:53:15;;;;;;;10.77;7.07;;;10.60;99.90;;;;;;5086261;28;20526;-63
2023/11/21 09:55:44;;;;;;;7.30;6.50;;;10.70;99.90;;;;;;5089307;28;20443;-63
2023/11/21 09:58:12;;;;;;;10.03;6.87;;;10.70;99.90;;;;;;5088447;28;20494;-62
2023/11/21 10:00:41;;;;;;;11.33;8.40;;;10.70;99.90;;;;;;5089839;28;20938;-63
2023/11/21 10:03:09;;;;;;;7.40;5.93;;;10.70;99.90;;;;;;5089025;28;20465;-63
2023/11/21 10:05:36;;;;;;;13.33;6.90;;;10.80;99.90;;;;;;5093381;28;20564;-63
2023/11/21 10:08:07;;;;;;;7.10;6.50;;;10.80;99.90;;;;;;5092802;28;20471;-63
2023/11/21 10:10:36;;;;;;;7.73;6.80;;;10.80;99.90;;;;;;5092474;28;20880;-63
2023/11/21 10:13:06;;;;;;;9.33;6.10;;;10.80;99.90;;;;;;5093196;28;20527;-63
2023/11/21 10:15:35;;;;;;;6.23;5.77;;;10.80;99.90;;;;;;5093649;28;20957;-63
2023/11/21 10:18:04;;;;;;;9.50;5.80;;;10.90;99.90;;;;;;5092114;28;20496;-63
2023/11/21 10:20:33;;;;;;;5.33;4.67;;;10.90;99.90;;;;;;5093779;28;20529;-63
2023/11/21 10:23:01;;;;;;;4.97;4.57;;;11.00;99.90;;;;;;5092400;28;20458;-63
2023/11/21 10:25:30;;;;;;;5.77;4.80;;;11.00;99.90;;;;;;5093080;28;20447;-64
2023/11/21 10:28:01;;;;;;;4.90;4.47;;;11.00;99.90;;;;;;5092082;28;20502;-63
2023/11/21 10:30:32;;;;;;;6.00;4.90;;;11.00;99.90;;;;;;5092833;28;20443;-63
2023/11/21 10:33:02;;;;;;;4.90;4.27;;;11.00;99.90;;;;;;5092340;28;20459;-64
2023/11/21 10:35:40;;;;;;;4.30;3.90;;;11.10;99.90;;;;;;5092767;28;20455;-64
2023/11/21 10:38:09;;;;;;;5.60;3.80;;;11.20;99.90;;;;;;5091879;28;20486;-64
2023/11/21 10:40:41;;;;;;;4.43;4.00;;;11.20;99.90;;;;;;5093122;28;20443;-64
2023/11/21 10:43:09;;;;;;;3.67;3.37;;;11.20;99.90;;;;;;5092634;28;20516;-64
2023/11/21 10:45:37;;;;;;;3.87;3.10;;;11.20;99.90;;;;;;5093066;28;20463;-64
2023/11/21 10:48:08;;;;;;;6.13;3.30;;;11.20;99.90;;;;;;5092043;28;20482;-64
2023/11/21 10:50:35;;;;;;;2.90;2.67;;;11.20;99.90;;;;;;5092548;28;20822;-64
2023/11/21 10:53:04;;;;;;;3.93;3.23;;;11.30;99.90;;;;;;5090949;28;20799;-65
2023/11/21 10:55:31;;;;;;;2.87;2.43;;;11.30;99.90;;;;;;5092299;28;20439;-64
2023/11/21 10:58:03;;;;;;;5.37;2.73;;;11.30;99.90;;;;;;5091648;28;21023;-65
2023/11/21 11:00:30;;;;;;;2.60;2.40;;;11.30;99.90;;;;;;5092488;28;20486;-65
2023/11/21 11:02:58;;;;;;;2.70;2.50;;;11.30;99.90;;;;;;5091645;28;20542;-64
2023/11/21 11:05:27;;;;;;;5.30;3.07;;;11.30;99.90;;;;;;5092291;28;20965;-64
2023/11/21 11:08:01;;;;;;;3.10;2.17;;;11.30;99.90;;;;;;5090951;28;21103;-64
2023/11/21 11:10:29;;;;;;;2.60;2.40;;;11.30;99.90;;;;;;5092142;28;20481;-64
2023/11/21 11:12:58;;;;;;;3.77;3.03;;;11.30;99.90;;;;;;5090799;28;20459;-64
2023/11/21 11:15:27;;;;;;;4.63;2.67;;;11.30;99.90;;;;;;5091895;28;20474;-64
2023/11/21 11:17:56;;;;;;;2.30;2.10;;;11.30;99.90;;;;;;5091205;28;20573;-65
2023/11/21 11:20:24;;;;;;;3.27;1.80;;;11.30;99.90;;;;;;5092478;28;20447;-64
2023/11/21 11:23:05;;;;;;;2.47;2.27;;;11.30;99.90;;;;;;5091682;28;20451;-64
2023/11/21 11:25:46;;;;;;;2.37;2.17;;;11.30;99.90;;;;;;5089385;28;20450;-64
2023/11/21 11:28:18;;;;;;;2.53;2.33;;;11.30;99.90;;;;;;5087487;28;20553;-64
2023/11/21 11:31:00;;;;;;;10.97;3.47;;;11.30;99.90;;;;;;5084367;28;20440;-64
2023/11/21 11:33:32;;;;;;;4.50;2.87;;;11.40;99.90;;;;;;5091176;28;20817;-65
2023/11/21 11:36:07;;;;;;;4.03;2.37;;;11.40;99.90;;;;;;5091366;28;20475;-65
2023/11/21 11:38:36;;;;;;;3.97;2.57;;;11.40;99.90;;;;;;5090606;28;21287;-65
2023/11/21 11:41:04;;;;;;;3.53;2.40;;;11.40;99.90;;;;;;5091883;28;20447;-65
2023/11/21 11:43:32;;;;;;;9.83;3.83;;;11.50;99.90;;;;;;5090714;28;20459;-64
2023/11/21 11:46:04;;;;;;;3.20;2.90;;;11.40;99.90;;;;;;5091614;28;20470;-65
2023/11/21 11:48:36;;;;;;;2.20;2.10;;;11.50;99.90;;;;;;5090213;28;20461;-64
2023/11/21 11:51:03;;;;;;;2.83;2.07;;;11.50;99.90;;;;;;5091795;28;20446;-64
2023/11/21 11:53:36;;;;;;;1.90;1.80;;;11.50;99.90;;;;;;5090573;28;20598;-64
2023/11/21 11:56:22;;;;;;;2.13;2.00;;;11.60;99.90;;;;;;5091199;28;20836;-65
2023/11/21 11:58:49;;;;;;;2.90;2.50;;;11.60;99.90;;;;;;5086404;28;20573;-65
2023/11/21 12:01:19;;;;;;;3.53;3.17;;;11.70;99.90;;;;;;5091449;28;20887;-64
2023/11/21 12:04:30;;;;;;;2.43;2.23;;;11.80;99.90;;;;;;5089231;28;20461;-64
2023/11/21 12:07:02;;;;;;;3.23;2.30;;;11.80;99.90;;;;;;5090488;28;20546;-65
2023/11/21 12:09:31;;;;;;;6.00;2.47;;;11.90;99.90;;;;;;5090417;28;20451;-65
2023/11/21 12:11:58;;;;;;;5.33;4.83;;;12.00;99.90;;;;;;5090365;28;20451;-64
2023/11/21 12:14:25;;;;;;;4.37;3.30;;;12.10;99.90;;;;;;5090278;28;20960;-64
2023/11/21 12:16:54;;;;;;;2.50;2.30;;;12.20;99.90;;;;;;5089905;28;20498;-65
2023/11/21 12:19:22;;;;;;;8.07;2.60;;;12.30;99.90;;;;;;5090648;28;20533;-64
2023/11/21 12:21:50;;;;;;;3.70;3.40;;;12.50;99.90;;;;;;5090522;28;20447;-64
2023/11/21 12:24:17;;;;;;;4.80;3.63;;;13.00;99.90;;;;;;5090667;28;20486;-65
2023/11/21 12:26:44;;;;;;;2.40;2.20;;;13.50;99.90;;;;;;5082581;28;20520;-64
2023/11/21 12:29:11;;;;;;;2.23;2.13;;;14.10;99.90;;;;;;5090073;28;20824;-65
2023/11/21 12:31:38;;;;;;;2.90;2.70;;;14.70;99.90;;;;;;5090247;28;20439;-65
2023/11/21 12:34:08;;;;;;;3.13;2.73;;;15.40;99.90;;;;;;5089800;28;20538;-65
2023/11/21 12:36:36;;;;;;;2.10;1.83;;;16.00;99.90;;;;;;5089732;28;20473;-64
2023/11/21 12:39:03;;;;;;;3.03;2.00;;;16.50;99.90;;;;;;5089759;28;21143;-65
2023/11/21 12:41:31;;;;;;;3.90;1.57;;;16.80;99.90;;;;;;5088914;28;20454;-65
2023/11/21 12:43:59;;;;;;;3.80;3.50;;;16.80;99.90;;;;;;5088889;28;20470;-65
2023/11/21 12:46:29;;;;;;;2.40;2.30;;;16.50;99.90;;;;;;5089603;28;21011;-65
2023/11/21 12:48:56;;;;;;;3.37;3.07;;;16.20;99.90;;;;;;5089421;28;20456;-65
2023/11/21 12:51:25;;;;;;;3.40;2.93;;;16.10;99.90;;;;;;5090408;28;20876;-64
2023/11/21 12:53:52;;;;;;;2.70;1.80;;;16.00;99.90;;;;;;5089200;28;21038;-65
2023/11/21 12:56:23;;;;;;;3.77;3.07;;;15.70;99.90;;;;;;5086900;28;20491;-64